Greenacres, Florida
Current Conditions -  °F | °C
As of 5:53 AM on Wednesday 22 Oct 2014 (Local Time) from KPBI Reporting Station
Broken Clouds Broken Clouds  
Wind Chill: 70°   Ceiling: 21000
Heat Index: 70°   Visibility: 10mi
Dew Point: 70°   Wind: 3mph
Humidity: 100%   Direction: 320°NW
Pressure: 29.92"   Gusts: NA
Location:  26.6599°N, 80.1276°W
Report Text: KPBI 220953Z 32003KT 10SM SCT170 BKN210 21/21 A2992 RMK AO2 SLP130 T02110211
Loading
Personal Weather Stations






























Interactive Weather Map
Tropical Storm Tracking
New forecast layout! Learn more

10-Day Weather Forecast

Advertisements
Track Severe Weather on mobile